Time;durP1;ratioP1;P1;durP2;ratioP2;P2;SDS_P1;SDS_P2;PMS_P1;PMS_P2;Temp;Humidity;BMP_temperature;BMP_pressure;BME280_temperature;BME280_humidity;BME280_pressure;Samples;Min_cycle;Max_cycle;Signal;HPM_P1;HPM_P2
2021/01/26 04:03:17;;;;;;;29.77;12.30;;;;;;;2.41;100.00;99503.49;1756865;79;21896;-66
2021/01/26 04:05:59;;;;;;;26.90;12.15;;;;;;;2.36;100.00;99519.05;1758837;80;21236;-67
2021/01/26 04:08:41;;;;;;;31.90;12.53;;;;;;;2.31;100.00;99523.36;1763666;80;21989;-68
2021/01/26 04:11:17;;;;;;;26.37;12.10;;;;;;;2.29;100.00;99525.26;1720747;81;21128;-65
2021/01/26 04:14:08;;;;;;;42.50;19.37;;;;;;;2.25;100.00;99525.23;1742573;80;21245;-67
2021/01/26 04:16:53;;;;;;;106.80;56.48;;;;;;;2.24;100.00;99525.38;1753210;79;21392;-66
2021/01/26 04:19:25;;;;;;;47.13;27.05;;;;;;;2.27;100.00;99530.21;1763724;79;20955;-67
2021/01/26 04:21:55;;;;;;;30.62;14.90;;;;;;;2.35;100.00;99531.56;1763869;79;21771;-66
2021/01/26 04:24:27;;;;;;;26.40;13.72;;;;;;;2.42;100.00;99536.45;1766787;79;20911;-66
2021/01/26 04:26:55;;;;;;;23.38;12.50;;;;;;;2.49;100.00;99538.77;1720411;79;21117;-66
2021/01/26 04:29:24;;;;;;;17.87;9.30;;;;;;;2.60;100.00;99546.25;1767462;79;22735;-67
2021/01/26 04:31:53;;;;;;;21.07;11.53;;;;;;;2.70;100.00;99550.52;1763052;79;21109;-66
2021/01/26 04:34:22;;;;;;;15.40;9.03;;;;;;;2.80;100.00;99557.65;1767001;79;21077;-66
2021/01/26 04:36:51;;;;;;;15.60;8.23;;;;;;;2.87;100.00;99566.39;1762151;80;21112;-71
2021/01/26 04:39:21;;;;;;;35.85;22.40;;;;;;;2.95;100.00;99572.07;1766036;79;20971;-68
2021/01/26 04:41:59;;;;;;;28.75;19.35;;;;;;;3.04;100.00;99575.05;1763680;79;22088;-66
2021/01/26 04:44:50;;;;;;;31.62;18.25;;;;;;;3.12;100.00;99578.47;1765410;79;21081;-66
2021/01/26 04:47:27;;;;;;;;;;;;;;;3.19;100.00;99579.16;1770320;79;21539;-67
2021/01/26 04:50:09;;;;;;;12.85;8.95;;;;;;;3.25;100.00;99582.41;1763228;79;20208;-66
2021/01/26 04:52:58;;;;;;;14.07;8.13;;;;;;;3.30;100.00;99595.66;1763524;79;21109;-66
2021/01/26 04:56:20;;;;;;;17.05;8.08;;;;;;;3.35;100.00;99595.51;1763241;80;22230;-66
2021/01/26 04:59:11;;;;;;;;;;;;;;;3.40;100.00;99601.48;1750062;80;22158;-65
2021/01/26 05:02:05;;;;;;;9.48;4.95;;;;;;;3.45;100.00;99613.45;1749473;80;20319;-66
2021/01/26 05:04:54;;;;;;;11.30;4.75;;;;;;;3.48;100.00;99615.70;1734354;81;21174;-67
2021/01/26 05:07:27;;;;;;;9.63;4.50;;;;;;;3.51;100.00;99617.97;1751042;80;21011;-67
2021/01/26 05:10:24;;;;;;;11.18;5.00;;;;;;;3.54;100.00;99624.11;1774153;79;22992;-67
2021/01/26 05:13:14;;;;;;;13.18;5.72;;;;;;;3.56;100.00;99629.94;1773275;79;21136;-68
2021/01/26 05:15:45;;;;;;;8.53;4.58;;;;;;;3.56;100.00;99629.94;1768814;79;21030;-68
2021/01/26 05:18:24;;;;;;;8.68;4.15;;;;;;;3.57;100.00;99639.76;1768787;79;21567;-68
2021/01/26 05:20:57;;;;;;;8.30;3.77;;;;;;;3.56;100.00;99628.65;1771077;79;21196;-68
2021/01/26 05:23:32;;;;;;;8.50;3.90;;;;;;;3.54;100.00;99634.42;1771469;79;21210;-66
2021/01/26 05:26:02;;;;;;;8.38;4.10;;;;;;;3.53;100.00;99644.41;1768441;79;21192;-64
2021/01/26 05:28:33;;;;;;;12.35;6.42;;;;;;;3.52;100.00;99650.98;1773576;79;21204;-66
2021/01/26 05:31:07;;;;;;;10.80;5.62;;;;;;;3.50;100.00;99650.34;1769529;79;21177;-66
2021/01/26 05:33:32;;;;;;;9.18;3.83;;;;;;;3.48;100.00;99647.91;1770036;80;21105;-68
2021/01/26 05:36:02;;;;;;;6.12;2.85;;;;;;;3.48;100.00;99649.67;1771994;79;21610;-65
2021/01/26 05:38:30;;;;;;;9.58;3.77;;;;;;;3.48;100.00;99663.36;1754951;80;21144;-65
2021/01/26 05:41:01;;;;;;;8.85;4.20;;;;;;;3.50;100.00;99665.81;1770724;78;21109;-64
2021/01/26 05:43:32;;;;;;;8.83;4.10;;;;;;;3.51;100.00;99669.99;1769893;79;20994;-67
2021/01/26 05:46:02;;;;;;;8.05;3.77;;;;;;;3.53;100.00;99681.77;1736194;81;21401;-67
2021/01/26 05:48:47;;;;;;;9.60;4.40;;;;;;;3.54;100.00;99676.94;1772409;79;22260;-66
2021/01/26 05:51:24;;;;;;;7.87;4.17;;;;;;;3.57;100.00;99679.22;1770841;79;21568;-66
2021/01/26 05:54:02;;;;;;;12.13;7.40;;;;;;;3.59;100.00;99687.59;1769272;80;21477;-65
2021/01/26 05:56:30;;;;;;;15.85;10.30;;;;;;;3.62;100.00;99702.76;1766197;80;21148;-69
2021/01/26 05:58:59;;;;;;;15.78;10.23;;;;;;;3.64;100.00;99706.00;1770365;79;21029;-67
2021/01/26 06:01:31;;;;;;;32.48;20.23;;;;;;;3.69;100.00;99713.76;1685077;81;22714;-65
2021/01/26 06:04:09;;;;;;;;;;;;;;;3.71;100.00;99717.78;1772779;79;21582;-67
2021/01/26 06:06:57;;;;;;;16.35;10.72;;;;;;;3.73;100.00;99718.94;1774387;79;20155;-66
2021/01/26 06:09:42;;;;;;;9.60;5.85;;;;;;;3.73;100.00;99717.16;1769845;79;21066;-66
2021/01/26 06:12:18;;;;;;;9.75;5.55;;;;;;;3.72;100.00;99727.16;1770559;79;21215;-66
2021/01/26 06:15:00;;;;;;;17.50;9.40;;;;;;;3.71;100.00;99739.70;1772813;79;21205;-66
2021/01/26 06:17:34;;;;;;;13.98;8.33;;;;;;;3.73;100.00;99736.98;1776132;79;21160;-67
2021/01/26 06:20:22;;;;;;;15.25;7.83;;;;;;;3.75;100.00;99741.03;1768256;79;21405;-66
2021/01/26 06:22:52;;;;;;;19.40;12.82;;;;;;;3.79;100.00;99737.64;1771556;79;21077;-67
2021/01/26 06:25:26;;;;;;;9.78;5.15;;;;;;;3.82;100.00;99754.91;1773573;78;21092;-66
2021/01/26 06:28:12;;;;;;;7.00;3.62;;;;;;;3.86;100.00;99763.16;1775172;79;22304;-66
2021/01/26 06:30:55;;;;;;;10.10;4.42;;;;;;;3.92;100.00;99762.55;1774102;79;21050;-69
2021/01/26 06:33:56;;;;;;;6.75;3.30;;;;;;;4.23;100.00;99774.97;1776624;79;21184;-67
2021/01/26 06:36:38;;;;;;;6.97;3.40;;;;;;;4.60;100.00;99774.66;1772246;79;21057;-71
2021/01/26 06:39:21;;;;;;;6.67;3.35;;;;;;;4.77;100.00;99784.08;1778143;78;21153;-67
2021/01/26 06:42:39;;;;;;;6.37;2.85;;;;;;;4.84;100.00;99786.83;1775336;79;22137;-67
2021/01/26 06:45:24;;;;;;;8.00;3.45;;;;;;;4.96;100.00;99792.02;1731176;80;21160;-67
2021/01/26 06:48:07;;;;;;;7.30;4.03;;;;;;;5.01;100.00;99792.86;1773850;79;21473;-67
2021/01/26 06:50:56;;;;;;;7.53;2.90;;;;;;;4.97;100.00;99801.40;1772834;79;21181;-66
2021/01/26 06:53:38;;;;;;;9.15;3.15;;;;;;;4.92;100.00;99802.33;1774534;79;21832;-65
2021/01/26 06:56:21;;;;;;;6.83;2.87;;;;;;;4.89;100.00;99797.51;1774257;79;21675;-67
2021/01/26 06:59:23;;;;;;;5.83;2.60;;;;;;;4.91;100.00;99820.09;1775297;80;21239;-68
2021/01/26 07:02:29;;;;;;;7.00;2.62;;;;;;;5.08;100.00;99819.19;1772751;79;21034;-67
2021/01/26 07:05:14;;;;;;;6.42;2.65;;;;;;;5.36;100.00;99828.75;1775251;79;21556;-68
2021/01/26 07:08:11;;;;;;;9.35;2.92;;;;;;;5.59;100.00;99812.61;1772677;78;21669;-67
2021/01/26 07:11:09;;;;;;;8.50;3.08;;;;;;;5.80;100.00;99823.29;1775376;79;22099;-68
2021/01/26 07:14:06;;;;;;;7.15;3.22;;;;;;;6.20;100.00;99824.22;1772816;78;21215;-67
2021/01/26 07:16:57;;;;;;;8.43;2.90;;;;;;;6.83;100.00;99831.14;1826875;78;21727;-66
2021/01/26 07:19:56;;;;;;;8.13;3.72;;;;;;;7.19;100.00;99835.80;1796578;79;21053;-70
2021/01/26 07:22:31;;;;;;;8.33;2.97;;;;;;;7.60;100.00;99834.23;1800318;78;21089;-67
2021/01/26 07:25:23;;;;;;;6.87;2.90;;;;;;;7.92;100.00;99834.47;1805356;78;21780;-69
2021/01/26 07:28:02;;;;;;;7.67;2.67;;;;;;;8.10;100.00;99831.52;1760765;78;21198;-69
2021/01/26 07:30:33;;;;;;;6.40;2.67;;;;;;;8.23;100.00;99848.61;1742272;80;21012;-69
2021/01/26 07:33:11;;;;;;;7.53;3.33;;;;;;;8.09;100.00;99853.28;1745245;81;21667;-67
2021/01/26 07:36:12;;;;;;;6.67;3.23;;;;;;;7.90;100.00;99861.57;1771151;80;21344;-67
2021/01/26 07:38:57;;;;;;;7.40;4.00;;;;;;;7.72;100.00;99872.24;1742022;81;21814;-68
2021/01/26 07:41:42;;;;;;;8.27;4.73;;;;;;;7.39;100.00;99867.30;1760990;80;21303;-68
2021/01/26 07:44:41;;;;;;;7.13;2.70;;;;;;;7.00;100.00;99887.56;1694000;80;21352;-66
2021/01/26 07:47:30;;;;;;;7.50;2.70;;;;;;;6.56;100.00;99886.77;1697791;82;21233;-68
2021/01/26 07:50:06;;;;;;;7.63;3.30;;;;;;;6.25;100.00;99881.50;1744196;81;22212;-68
2021/01/26 07:52:35;;;;;;;9.50;3.07;;;;;;;6.18;100.00;99886.20;1750844;80;21481;-68
2021/01/26 07:55:23;;;;;;;5.33;2.73;;;;;;;6.28;100.00;99894.58;1756329;81;22047;-68
2021/01/26 07:58:02;;;;;;;5.97;3.03;;;;;;;6.54;100.00;99895.17;1736746;81;21385;-67
2021/01/26 08:00:34;;;;;;;10.60;4.33;;;;;;;6.80;100.00;99897.53;1749555;81;21266;-67
2021/01/26 08:03:02;;;;;;;7.37;3.72;;;;;;;6.92;100.00;99917.41;1757685;81;22122;-67
2021/01/26 08:05:52;;;;;;;9.70;3.57;;;;;;;6.99;100.00;99923.53;1760867;80;21004;-67
2021/01/26 08:08:35;;;;;;;5.83;2.57;;;;;;;7.04;100.00;99929.02;1728477;81;21624;-67
2021/01/26 08:11:20;;;;;;;7.13;2.53;;;;;;;7.00;100.00;99919.96;1746108;81;21409;-67
2021/01/26 08:13:50;;;;;;;7.60;3.07;;;;;;;6.83;100.00;99921.81;1752595;81;21814;-67
2021/01/26 08:16:35;;;;;;;6.45;2.60;;;;;;;6.59;100.00;99934.81;1743309;81;22297;-67
2021/01/26 08:19:07;;;;;;;6.23;2.27;;;;;;;6.42;100.00;99946.98;1762073;80;21401;-68
2021/01/26 08:21:41;;;;;;;;;;;;;;;6.29;100.00;99952.67;1813918;78;22547;-67
2021/01/26 08:24:20;;;;;;;5.83;2.47;;;;;;;6.18;100.00;99940.55;1807189;79;20804;-67
2021/01/26 08:26:50;;;;;;;5.97;3.03;;;;;;;6.04;100.00;99953.63;1803726;79;21181;-68
2021/01/26 08:29:42;;;;;;;6.87;3.20;;;;;;;5.88;100.00;99942.76;1809801;78;21434;-67
2021/01/26 08:32:31;;;;;;;9.17;6.00;;;;;;;5.85;100.00;99949.53;1789589;78;21279;-67
2021/01/26 08:35:08;;;;;;;5.40;3.05;;;;;;;5.88;100.00;99946.64;1806259;78;21275;-66
2021/01/26 08:37:50;;;;;;;7.25;3.65;;;;;;;5.94;100.00;99932.27;1802410;78;21224;-67
2021/01/26 08:40:21;;;;;;;;;;;;;;;5.98;100.00;99936.95;1810052;79;20998;-67
2021/01/26 08:42:53;;;;;;;15.13;8.95;;;;;;;6.03;100.00;99946.36;1806948;78;21337;-67
2021/01/26 08:45:33;;;;;;;15.90;9.25;;;;;;;6.14;100.00;99939.22;1804715;78;21034;-67
2021/01/26 08:48:22;;;;;;;7.60;3.00;;;;;;;6.32;100.00;99943.75;1736341;80;21077;-67
2021/01/26 08:50:56;;;;;;;4.55;2.60;;;;;;;6.45;100.00;99929.84;1693729;80;21240;-66
2021/01/26 08:53:38;;;;;;;5.37;2.40;;;;;;;6.47;100.00;99932.25;1759796;80;21588;-69
2021/01/26 08:56:25;;;;;;;6.43;2.80;;;;;;;6.47;100.00;99936.13;1764121;80;21462;-66
2021/01/26 08:58:55;;;;;;;4.17;1.90;;;;;;;6.49;100.00;99933.71;1761617;80;21282;-67
2021/01/26 09:01:40;;;;;;;4.53;2.20;;;;;;;6.64;100.00;99934.34;1795266;79;21169;-66
2021/01/26 09:04:20;;;;;;;5.17;2.23;;;;;;;6.88;100.00;99944.62;1809516;78;21294;-66
2021/01/26 09:06:48;;;;;;;7.10;3.10;;;;;;;7.15;100.00;99941.30;1744405;80;21256;-67
2021/01/26 09:09:30;;;;;;;5.03;2.73;;;;;;;7.27;100.00;99942.07;1808258;79;21451;-66
2021/01/26 09:12:02;;;;;;;6.20;2.27;;;;;;;7.34;100.00;99933.10;1797900;79;21121;-66
2021/01/26 09:14:44;;;;;;;3.70;1.83;;;;;;;7.44;100.00;99939.39;1803388;78;21168;-67
2021/01/26 09:17:27;;;;;;;;;;;;;;;7.50;100.00;99939.98;1800474;78;21356;-66
2021/01/26 09:19:58;;;;;;;5.37;2.20;;;;;;;7.59;100.00;99952.44;1796056;78;20504;-67
2021/01/26 09:22:31;;;;;;;5.60;2.42;;;;;;;7.63;100.00;99942.84;1791775;78;21153;-66
2021/01/26 09:25:13;;;;;;;5.17;2.57;;;;;;;7.71;100.00;99945.88;1803689;78;21077;-66
2021/01/26 09:27:43;;;;;;;7.50;2.30;;;;;;;7.74;100.00;99948.13;1806443;78;21169;-67
2021/01/26 09:30:21;;;;;;;4.67;2.50;;;;;;;7.71;100.00;99947.17;1746841;81;21866;-65
2021/01/26 09:33:09;;;;;;;5.00;2.50;;;;;;;7.64;100.00;99957.42;1743205;81;21755;-66
2021/01/26 09:36:03;;;;;;;6.57;3.57;;;;;;;7.54;100.00;99964.13;1774249;80;21497;-66
2021/01/26 09:38:50;;;;;;;6.70;2.92;;;;;;;7.50;100.00;99964.63;1768826;80;21425;-68
2021/01/26 09:41:28;;;;;;;5.20;2.20;;;;;;;7.43;100.00;99962.41;1756569;80;22310;-67
2021/01/26 09:44:11;;;;;;;8.07;2.40;;;;;;;7.46;100.00;99967.23;1762996;80;21229;-67
2021/01/26 09:46:46;;;;;;;6.40;2.73;;;;;;;7.51;100.00;99975.34;1759178;80;21309;-67
2021/01/26 09:49:28;;;;;;;5.90;2.30;;;;;;;7.56;100.00;99972.54;1762239;80;22438;-66
2021/01/26 09:52:03;;;;;;;4.95;1.98;;;;;;;7.64;100.00;99970.88;1772548;80;21450;-66
2021/01/26 09:54:33;;;;;;;6.50;2.87;;;;;;;7.74;100.00;99969.69;1741139;81;21220;-67
2021/01/26 09:57:02;;;;;;;5.75;2.40;;;;;;;7.90;100.00;99974.46;1758422;79;21262;-66
2021/01/26 09:59:32;;;;;;;5.10;2.30;;;;;;;8.08;100.00;99972.88;1759680;79;21161;-65
2021/01/26 10:02:01;;;;;;;6.93;2.10;;;;;;;8.27;100.00;99969.31;1762787;79;21371;-67
2021/01/26 10:04:35;;;;;;;6.03;2.57;;;;;;;8.45;100.00;99966.45;1738637;80;21446;-66
2021/01/26 10:07:07;;;;;;;6.10;2.80;;;;;;;8.65;100.00;99958.94;1738968;80;21485;-67
2021/01/26 10:09:36;;;;;;;6.12;2.95;;;;;;;8.82;100.00;99959.57;1769038;80;21350;-64
2021/01/26 10:12:36;;;;;;;7.77;3.80;;;;;;;8.87;100.00;99955.16;1769665;80;21152;-66
2021/01/26 10:15:30;;;;;;;6.53;3.00;;;;;;;8.95;100.00;99953.77;1768630;80;21427;-67
2021/01/26 10:18:21;;;;;;;6.93;2.30;;;;;;;9.00;100.00;99947.02;1773955;80;21486;-64
2021/01/26 10:20:59;;;;;;;5.67;2.47;;;;;;;8.94;100.00;99934.77;1769450;80;21265;-64
2021/01/26 10:23:36;;;;;;;6.33;2.53;;;;;;;8.79;100.00;99935.27;1767490;80;21485;-64
2021/01/26 10:26:22;;;;;;;6.43;2.80;;;;;;;8.61;100.00;99935.60;1769848;80;21354;-62
2021/01/26 10:29:14;;;;;;;4.57;2.17;;;;;;;8.46;100.00;99928.28;1775314;80;21435;-63
2021/01/26 10:31:53;;;;;;;5.78;2.87;;;;;;;8.32;100.00;99924.64;1777524;80;21436;-67
2021/01/26 10:34:36;;;;;;;7.17;3.27;;;;;;;8.12;100.00;99934.71;1770110;80;21765;-65
2021/01/26 10:37:15;;;;;;;9.40;3.17;;;;;;;7.98;100.00;99940.66;1738855;81;21173;-64
2021/01/26 10:39:44;;;;;;;5.47;2.50;;;;;;;7.83;100.00;99947.09;1734730;81;21378;-65
2021/01/26 10:42:23;;;;;;;5.60;2.87;;;;;;;7.71;100.00;99943.28;1766414;80;21474;-65
2021/01/26 10:44:53;;;;;;;7.53;3.20;;;;;;;7.64;100.00;99944.94;1766713;80;21400;-66
2021/01/26 10:47:28;;;;;;;5.87;2.37;;;;;;;7.59;100.00;99943.36;1748413;81;21342;-70
2021/01/26 10:50:14;;;;;;;6.87;3.00;;;;;;;7.53;100.00;99949.53;1740368;81;21899;-66
2021/01/26 10:52:49;;;;;;;10.50;3.80;;;;;;;7.50;100.00;99943.41;1761947;80;21472;-65
2021/01/26 10:55:21;;;;;;;10.37;5.47;;;;;;;7.52;100.00;99951.81;1744792;81;21406;-66
2021/01/26 10:57:50;;;;;;;8.53;3.80;;;;;;;7.58;100.00;99949.04;1746369;81;22587;-65
2021/01/26 11:00:26;;;;;;;8.47;3.40;;;;;;;7.61;100.00;99943.98;1740665;81;21177;-65
2021/01/26 11:02:54;;;;;;;10.07;3.50;;;;;;;7.63;100.00;99947.23;1753686;80;21255;-64
2021/01/26 11:05:26;;;;;;;7.10;3.03;;;;;;;7.65;100.00;99937.01;1752999;81;21260;-66
2021/01/26 11:07:54;;;;;;;5.83;3.10;;;;;;;7.66;100.00;99936.52;1754120;81;21457;-65
2021/01/26 11:10:24;;;;;;;8.40;3.50;;;;;;;7.67;100.00;99929.04;1751304;81;21876;-64
2021/01/26 11:12:53;;;;;;;8.80;3.73;;;;;;;7.62;100.00;99928.76;1750864;81;21314;-66
2021/01/26 11:15:26;;;;;;;7.80;3.17;;;;;;;7.49;100.00;99929.30;1746913;81;21280;-67
2021/01/26 11:17:53;;;;;;;10.13;4.03;;;;;;;7.38;100.00;99920.11;1739312;81;21906;-69
2021/01/26 11:20:24;;;;;;;8.10;3.33;;;;;;;7.30;100.00;99927.94;1728698;82;21401;-66
2021/01/26 11:22:52;;;;;;;8.33;3.33;;;;;;;7.25;100.00;99919.88;1737470;82;21156;-66
2021/01/26 11:25:24;;;;;;;10.20;3.70;;;;;;;7.22;100.00;99908.54;1785468;79;21338;-67
2021/01/26 11:27:54;;;;;;;7.87;3.50;;;;;;;7.20;100.00;99904.84;1778975;79;21500;-67
2021/01/26 11:30:24;;;;;;;15.40;9.60;;;;;;;7.19;100.00;99893.32;1794178;79;21206;-66
2021/01/26 11:32:54;;;;;;;52.03;30.43;;;;;;;7.15;100.00;99884.27;1788534;79;22122;-66
2021/01/26 11:35:24;;;;;;;21.97;13.07;;;;;;;7.13;100.00;99881.86;1797397;79;21232;-66
2021/01/26 11:37:52;;;;;;;212.00;161.00;;;;;;;7.16;100.00;99893.66;1788565;79;21353;-67
2021/01/26 11:40:22;;;;;;;52.63;41.73;;;;;;;7.16;100.00;99886.71;1783606;79;21373;-65
2021/01/26 11:42:50;;;;;;;21.43;16.33;;;;;;;7.15;100.00;99890.26;1794406;79;21406;-64
2021/01/26 11:45:26;;;;;;;17.33;9.00;;;;;;;7.18;100.00;99883.44;1791847;79;21461;-64
2021/01/26 11:47:55;;;;;;;13.50;6.17;;;;;;;7.24;100.00;99887.16;1792475;79;21777;-65
2021/01/26 11:50:23;;;;;;;21.53;13.03;;;;;;;7.26;100.00;99887.78;1800068;79;21479;-66
2021/01/26 11:52:51;;;;;;;34.57;26.07;;;;;;;7.27;100.00;99886.33;1795702;79;21598;-67
2021/01/26 11:55:24;;;;;;;30.33;23.70;;;;;;;7.28;100.00;99889.23;1790939;79;21446;-66
2021/01/26 11:57:52;;;;;;;19.00;14.87;;;;;;;7.30;100.00;99889.05;1783055;79;22200;-66
2021/01/26 12:00:24;;;;;;;36.07;32.07;;;;;;;7.31;100.00;99891.95;1793689;79;21399;-67
2021/01/26 12:02:52;;;;;;;18.13;12.33;;;;;;;7.32;100.00;99894.88;1745629;81;21971;-69
2021/01/26 12:05:23;;;;;;;11.57;6.58;;;;;;;7.30;100.00;99893.74;1734597;82;21767;-67
2021/01/26 12:07:51;;;;;;;13.83;7.37;;;;;;;7.29;100.00;99900.41;1735297;82;21200;-66
2021/01/26 12:10:21;;;;;;;10.97;4.80;;;;;;;7.28;100.00;99902.20;1738808;82;21263;-65
2021/01/26 12:12:50;;;;;;;11.93;4.63;;;;;;;7.30;100.00;99895.04;1732946;82;21378;-66
2021/01/26 12:15:22;;;;;;;11.07;4.33;;;;;;;7.29;100.00;99896.02;1731588;81;22731;-66
2021/01/26 12:17:50;;;;;;;18.87;7.17;;;;;;;7.27;100.00;99897.16;1724046;81;21240;-64
2021/01/26 12:20:20;;;;;;;264.45;147.17;;;;;;;7.22;100.00;99890.39;1718286;82;21456;-69
2021/01/26 12:22:49;;;;;;;214.00;158.83;;;;;;;7.19;100.00;99892.83;1737738;81;21380;-66
2021/01/26 12:25:19;;;;;;;50.93;41.87;;;;;;;7.19;100.00;99904.49;1761987;79;21218;-66
2021/01/26 12:27:47;;;;;;;17.63;10.57;;;;;;;7.19;100.00;99916.65;1784949;79;21267;-67
2021/01/26 12:30:16;;;;;;;12.83;6.07;;;;;;;7.15;100.00;99917.97;1785090;79;21843;-71
2021/01/26 12:32:45;;;;;;;14.03;5.77;;;;;;;7.10;100.00;99911.20;1775114;79;21502;-66
2021/01/26 12:35:18;;;;;;;14.43;7.27;;;;;;;7.10;100.00;99902.13;1728702;81;21499;-64
2021/01/26 12:37:46;;;;;;;18.10;15.37;;;;;;;7.15;100.00;99908.89;1789279;79;21761;-64
2021/01/26 12:40:17;;;;;;;19.73;9.93;;;;;;;7.19;100.00;99911.47;1787986;79;21355;-64
2021/01/26 12:42:45;;;;;;;15.87;7.57;;;;;;;7.28;100.00;99906.58;1790628;79;21795;-64
2021/01/26 12:45:15;;;;;;;15.73;6.70;;;;;;;7.45;100.00;99911.17;1785098;79;21323;-64
2021/01/26 12:47:43;;;;;;;97.07;62.13;;;;;;;7.62;100.00;99907.52;1792711;79;21428;-65
2021/01/26 12:50:16;;;;;;;607.90;440.53;;;;;;;7.78;100.00;99906.59;1788394;79;21848;-68
2021/01/26 12:52:46;;;;;;;379.47;244.07;;;;;;;7.86;100.00;99900.03;1787659;79;22500;-64
2021/01/26 12:55:15;;;;;;;963.53;629.80;;;;;;;7.87;100.00;99875.69;1788003;79;21796;-64
2021/01/26 12:57:45;;;;;;;788.10;500.33;;;;;;;7.84;100.00;99874.77;1785578;79;21440;-64
2021/01/26 13:00:19;;;;;;;323.20;146.63;;;;;;;7.77;100.00;99877.24;1788538;78;22281;-65
2021/01/26 13:02:48;;;;;;;295.97;176.77;;;;;;;7.68;100.00;99878.77;1791154;79;21336;-64
2021/01/26 13:05:17;;;;;;;209.77;162.83;;;;;;;7.58;100.00;99872.98;1785612;79;21261;-65
2021/01/26 13:07:45;;;;;;;129.10;116.27;;;;;;;7.52;100.00;99875.30;1789585;79;21140;-64
2021/01/26 13:10:16;;;;;;;29.40;24.50;;;;;;;7.45;100.00;99875.67;1780146;79;21507;-67
2021/01/26 13:12:44;;;;;;;22.40;10.77;;;;;;;7.35;100.00;99866.03;1789193;79;21417;-64
2021/01/26 13:15:16;;;;;;;49.47;44.17;;;;;;;7.24;100.00;99863.83;1744913;81;21461;-67
2021/01/26 13:17:44;;;;;;;16.23;9.83;;;;;;;7.09;100.00;99859.05;1748130;81;21722;-65
2021/01/26 13:20:12;;;;;;;179.73;143.37;;;;;;;6.90;100.00;99858.48;1790926;79;22674;-64
2021/01/26 13:22:42;;;;;;;51.73;39.43;;;;;;;6.72;100.00;99856.61;1799451;79;21964;-64
2021/01/26 13:25:15;;;;;;;120.53;99.83;;;;;;;6.58;100.00;99864.08;1801197;79;21458;-65
2021/01/26 13:27:43;;;;;;;226.25;184.13;;;;;;;6.45;100.00;99872.88;1783688;79;21030;-65
2021/01/26 13:30:13;;;;;;;32.73;25.02;;;;;;;6.32;100.00;99868.68;1761308;80;21211;-65
2021/01/26 13:32:41;;;;;;;22.10;11.53;;;;;;;6.22;100.00;99862.89;1791873;78;21220;-65
2021/01/26 13:35:14;;;;;;;34.38;30.70;;;;;;;6.09;100.00;99870.66;1797408;79;21176;-66
2021/01/26 13:37:42;;;;;;;18.90;10.75;;;;;;;5.96;100.00;99867.77;1796698;79;21220;-64
2021/01/26 13:40:11;;;;;;;18.32;10.55;;;;;;;5.84;100.00;99859.98;1797762;79;21216;-67
2021/01/26 13:42:40;;;;;;;17.02;8.88;;;;;;;5.76;100.00;99858.70;1797373;79;21199;-65
2021/01/26 13:45:09;;;;;;;18.70;9.48;;;;;;;5.68;100.00;99859.96;1794063;79;21626;-66
2021/01/26 13:47:38;;;;;;;571.17;357.48;;;;;;;5.61;100.00;99860.62;1790005;79;21132;-64
2021/01/26 13:50:08;;;;;;;86.30;60.80;;;;;;;5.57;100.00;99867.57;1796526;79;22095;-66
2021/01/26 13:52:36;;;;;;;639.65;350.10;;;;;;;5.54;100.00;99864.01;1802761;79;21216;-65
2021/01/26 13:55:06;;;;;;;133.60;67.17;;;;;;;5.51;100.00;99879.83;1797282;79;21496;-63
2021/01/26 13:57:34;;;;;;;83.20;63.92;;;;;;;5.49;100.00;99885.17;1800341;78;21176;-66
2021/01/26 14:00:05;;;;;;;335.57;195.92;;;;;;;5.47;100.00;99876.75;1803855;79;21225;-68
2021/01/26 14:02:35;;;;;;;229.63;136.75;;;;;;;5.47;100.00;99891.45;1797612;79;22327;-67
2021/01/26 14:05:05;;;;;;;47.17;34.27;;;;;;;5.47;100.00;99883.22;1785211;79;21092;-66
2021/01/26 14:07:33;;;;;;;19.67;13.53;;;;;;;5.49;100.00;99876.12;1799478;79;21504;-67
2021/01/26 14:10:01;;;;;;;20.90;12.00;;;;;;;5.49;100.00;99881.30;1790617;79;21619;-68
2021/01/26 14:12:29;;;;;;;16.67;9.63;;;;;;;5.49;100.00;99877.41;1799682;79;21693;-69
2021/01/26 14:14:58;;;;;;;23.15;14.03;;;;;;;5.49;100.00;99868.37;1739606;81;22328;-67
2021/01/26 14:17:27;;;;;;;19.23;10.05;;;;;;;5.51;100.00;99881.13;1740319;81;21228;-67
2021/01/26 14:19:56;;;;;;;20.00;8.38;;;;;;;5.50;100.00;99889.37;1740734;81;21078;-69
2021/01/26 14:22:24;;;;;;;20.55;9.10;;;;;;;5.49;100.00;99893.38;1729366;80;21251;-67
2021/01/26 14:24:54;;;;;;;16.80;6.72;;;;;;;5.48;100.00;99893.87;1792714;78;21444;-67
2021/01/26 14:27:22;;;;;;;1803.73;630.05;;;;;;;5.49;100.00;99890.34;1784479;78;21148;-68
2021/01/26 14:29:53;;;;;;;176.95;102.30;;;;;;;5.49;100.00;99892.93;1795221;78;21650;-69
2021/01/26 14:32:21;;;;;;;28.60;15.68;;;;;;;5.49;100.00;99896.81;1790457;78;21120;-69
2021/01/26 14:34:52;;;;;;;24.07;11.65;;;;;;;5.49;100.00;99895.52;1788625;79;21132;-68
2021/01/26 14:37:22;;;;;;;39.40;20.17;;;;;;;5.48;100.00;99891.29;1792735;78;21536;-68
2021/01/26 14:39:51;;;;;;;23.30;11.00;;;;;;;5.48;100.00;99875.78;1806250;78;21325;-69
2021/01/26 14:42:19;;;;;;;25.17;11.50;;;;;;;5.49;100.00;99886.47;1798113;78;21208;-69
2021/01/26 14:44:48;;;;;;;19.62;10.15;;;;;;;5.50;100.00;99898.91;1805327;78;21149;-67
2021/01/26 14:47:17;;;;;;;26.25;9.60;;;;;;;5.52;100.00;99896.95;1783324;78;20982;-67
2021/01/26 14:49:45;;;;;;;23.67;9.30;;;;;;;5.49;100.00;99898.09;1741246;82;21621;-67
2021/01/26 14:52:14;;;;;;;22.40;8.75;;;;;;;5.49;100.00;99905.86;1743346;80;23360;-67
2021/01/26 14:54:43;;;;;;;21.17;8.03;;;;;;;5.48;100.00;99908.09;1740541;82;21184;-67
2021/01/26 14:57:11;;;;;;;16.93;7.90;;;;;;;5.48;100.00;99902.92;1762751;80;21113;-67
2021/01/26 14:59:39;;;;;;;48.23;30.40;;;;;;;5.48;100.00;99904.22;1794117;78;21196;-67
2021/01/26 15:02:08;;;;;;;461.40;292.65;;;;;;;5.49;100.00;99899.84;1806293;78;21164;-68
2021/01/26 15:04:37;;;;;;;128.15;94.15;;;;;;;5.49;100.00;99886.47;1790664;78;21248;-67
2021/01/26 15:07:05;;;;;;;96.32;87.05;;;;;;;5.51;100.00;99883.70;1800216;78;21570;-67
2021/01/26 15:09:35;;;;;;;45.95;41.02;;;;;;;5.51;100.00;99876.76;1798713;78;21607;-67
2021/01/26 15:12:04;;;;;;;22.60;15.18;;;;;;;5.52;100.00;99877.08;1794839;78;21094;-67
2021/01/26 15:14:34;;;;;;;21.77;15.23;;;;;;;5.53;100.00;99876.12;1792444;78;21200;-67
2021/01/26 15:17:02;;;;;;;23.47;12.80;;;;;;;5.53;100.00;99872.70;1801126;78;21366;-67
2021/01/26 15:19:32;;;;;;;20.08;8.38;;;;;;;5.53;100.00;99859.33;1775463;79;21244;-71
2021/01/26 15:22:01;;;;;;;17.23;7.35;;;;;;;5.53;100.00;99861.08;1774470;79;22013;-67
2021/01/26 15:24:30;;;;;;;18.23;14.38;;;;;;;5.52;100.00;99865.93;1773064;79;21118;-66
2021/01/26 15:26:59;;;;;;;19.82;12.73;;;;;;;5.48;100.00;99865.44;1769152;79;21120;-69
2021/01/26 15:29:27;;;;;;;20.65;9.63;;;;;;;5.46;100.00;99871.75;1778129;79;21308;-71
2021/01/26 15:31:57;;;;;;;18.37;8.90;;;;;;;5.44;100.00;99869.31;1769415;79;21010;-68
2021/01/26 15:34:26;;;;;;;17.23;9.15;;;;;;;5.42;100.00;99863.51;1778898;79;21205;-68
2021/01/26 15:36:54;;;;;;;23.18;10.28;;;;;;;5.39;100.00;99863.82;1787513;79;21251;-68
2021/01/26 15:39:23;;;;;;;24.40;11.25;;;;;;;5.36;100.00;99857.67;1777514;79;21661;-74
2021/01/26 15:41:51;;;;;;;21.45;10.43;;;;;;;5.36;100.00;99860.25;1765641;79;22861;-76
2021/01/26 15:44:20;;;;;;;26.75;12.47;;;;;;;5.35;100.00;99861.23;1785585;79;21213;-78
2021/01/26 15:46:50;;;;;;;1105.43;635.48;;;;;;;5.35;100.00;99862.52;1780380;79;21220;-77
2021/01/26 15:49:19;;;;;;;173.30;123.05;;;;;;;5.37;100.00;99865.74;1774757;79;21205;-78
2021/01/26 15:51:48;;;;;;;628.58;463.30;;;;;;;5.39;100.00;99850.89;1762608;79;21207;-71
2021/01/26 15:54:17;;;;;;;134.82;120.15;;;;;;;5.40;100.00;99851.22;1765515;79;21272;-75
2021/01/26 15:56:46;;;;;;;80.35;72.03;;;;;;;5.41;100.00;99848.14;1786534;79;21127;-80
2021/01/26 15:59:15;;;;;;;36.25;32.42;;;;;;;5.40;100.00;99842.17;1764795;79;21050;-78
2021/01/26 16:01:44;;;;;;;18.35;9.95;;;;;;;5.40;100.00;99844.75;1759240;79;21088;-73
2021/01/26 16:04:14;;;;;;;150.35;121.40;;;;;;;5.39;100.00;99857.36;1767975;79;22417;-76
2021/01/26 16:06:42;;;;;;;30.65;24.90;;;;;;;5.40;100.00;99858.16;1784065;79;21377;-78